createdAt,value
2024-03-07T00:00:16.466Z,1022.27
2024-03-07T00:01:15.145Z,1022.25
2024-03-07T00:02:14.200Z,1022.25
2024-03-07T00:03:14.247Z,1022.27
2024-03-07T00:04:15.093Z,1022.30
2024-03-07T00:05:15.087Z,1022.29
2024-03-07T00:06:15.073Z,1022.28
2024-03-07T00:07:15.063Z,1022.30
2024-03-07T00:08:15.086Z,1022.29
2024-03-07T00:09:15.038Z,1022.28
2024-03-07T00:10:15.032Z,1022.30
2024-03-07T00:11:15.042Z,1022.32
2024-03-07T00:12:15.049Z,1022.40
2024-03-07T00:13:14.997Z,1022.40
2024-03-07T00:14:14.100Z,1022.33
2024-03-07T00:15:14.995Z,1022.32
2024-03-07T00:16:14.972Z,1022.30
2024-03-07T00:17:14.963Z,1022.29
2024-03-07T00:18:16.079Z,1022.29
2024-03-07T00:19:14.908Z,1022.32
2024-03-07T00:20:14.934Z,1022.30
2024-03-07T00:21:16.392Z,1022.38
2024-03-07T00:22:16.391Z,1022.39
2024-03-07T00:23:14.885Z,1022.34
2024-03-07T00:24:16.361Z,1022.38
2024-03-07T00:25:16.360Z,1022.35
2024-03-07T00:26:15.878Z,1022.34
2024-03-07T00:27:15.312Z,1022.37
2024-03-07T00:28:14.826Z,1022.35
2024-03-07T00:29:14.841Z,1022.35
2024-03-07T00:30:13.865Z,1022.33
2024-03-07T00:31:13.870Z,1022.35
2024-03-07T00:32:16.265Z,1022.34
2024-03-07T00:33:15.025Z,1022.32
2024-03-07T00:34:19.620Z,1022.38
2024-03-07T00:35:14.853Z,1022.32
2024-03-07T00:36:14.767Z,1022.31
2024-03-07T00:37:14.730Z,1022.31
2024-03-07T00:38:14.791Z,1022.34
2024-03-07T00:39:15.722Z,1022.32
2024-03-07T00:40:14.708Z,1022.29
2024-03-07T00:41:14.717Z,1022.29
2024-03-07T00:42:14.675Z,1022.25
2024-03-07T00:43:14.676Z,1022.25
2024-03-07T00:44:14.752Z,1022.28
2024-03-07T00:45:14.661Z,1022.26
2024-03-07T00:46:14.630Z,1022.23
2024-03-07T00:47:14.653Z,1022.29
2024-03-07T00:48:14.662Z,1022.27
2024-03-07T00:49:14.586Z,1022.31
2024-03-07T00:50:13.698Z,1022.31
2024-03-07T00:51:13.641Z,1022.33
2024-03-07T00:52:13.635Z,1022.31
2024-03-07T00:53:13.625Z,1022.29
2024-03-07T00:54:13.631Z,1022.33
2024-03-07T00:55:14.572Z,1022.30
2024-03-07T00:56:14.564Z,1022.34
2024-03-07T00:57:16.011Z,1022.27
2024-03-07T00:58:13.572Z,1022.26
2024-03-07T00:59:14.522Z,1022.28
2024-03-07T01:00:13.563Z,1022.30
2024-03-07T01:01:14.519Z,1022.22
2024-03-07T01:02:13.584Z,1022.30
2024-03-07T01:03:14.462Z,1022.26
2024-03-07T01:04:14.957Z,1022.29
2024-03-07T01:05:13.531Z,1022.30
2024-03-07T01:06:14.438Z,1022.28
2024-03-07T01:07:15.909Z,1022.31
2024-03-07T01:08:16.008Z,1022.28
2024-03-07T01:09:14.391Z,1022.28
2024-03-07T01:10:14.424Z,1022.29
2024-03-07T01:11:13.642Z,1022.26
2024-03-07T01:12:13.555Z,1022.25
2024-03-07T01:13:13.451Z,1022.29
2024-03-07T01:14:13.525Z,1022.28
2024-03-07T01:15:14.813Z,1022.31
2024-03-07T01:16:14.316Z,1022.28
2024-03-07T01:17:13.409Z,1022.24
2024-03-07T01:18:13.439Z,1022.32
2024-03-07T01:19:14.772Z,1022.24
2024-03-07T01:20:13.529Z,1022.29
2024-03-07T01:21:14.771Z,1022.23
2024-03-07T01:22:14.753Z,1022.24
2024-03-07T01:23:13.329Z,1022.23
2024-03-07T01:24:13.315Z,1022.22
2024-03-07T01:25:14.709Z,1022.19
2024-03-07T01:26:15.240Z,1022.22
2024-03-07T01:27:13.282Z,1022.20
2024-03-07T01:28:14.699Z,1022.17
2024-03-07T01:29:15.280Z,1022.14
2024-03-07T01:30:15.144Z,1022.19
2024-03-07T01:31:13.229Z,1022.14
2024-03-07T01:32:13.253Z,1022.15
2024-03-07T01:33:13.292Z,1022.19
2024-03-07T01:34:13.182Z,1022.16
2024-03-07T01:35:13.190Z,1022.20
2024-03-07T01:36:14.129Z,1022.17
2024-03-07T01:37:14.585Z,1022.14
2024-03-07T01:38:14.609Z,1022.16
2024-03-07T01:39:13.123Z,1022.15
2024-03-07T01:40:14.585Z,1022.16
2024-03-07T01:41:14.571Z,1022.15
2024-03-07T01:42:15.035Z,1022.17
2024-03-07T01:43:15.525Z,1022.15
2024-03-07T01:44:14.545Z,1022.19
2024-03-07T01:45:13.082Z,1022.15
2024-03-07T01:46:15.514Z,1022.17
2024-03-07T01:47:15.519Z,1022.18
2024-03-07T01:48:14.580Z,1022.20
2024-03-07T01:49:13.018Z,1022.14
2024-03-07T01:50:13.099Z,1022.15
2024-03-07T01:51:13.009Z,1022.16
2024-03-07T01:52:14.419Z,1022.16
2024-03-07T01:53:14.438Z,1022.15
2024-03-07T01:54:14.421Z,1022.15
2024-03-07T01:55:14.410Z,1022.12
2024-03-07T01:56:14.912Z,1022.12
2024-03-07T01:57:13.547Z,1022.14
2024-03-07T01:58:12.944Z,1022.12
2024-03-07T01:59:14.477Z,1022.11
2024-03-07T02:00:12.951Z,1022.12
2024-03-07T02:01:14.434Z,1022.10
2024-03-07T02:02:14.836Z,1022.14
2024-03-07T02:03:14.817Z,1022.12
2024-03-07T02:04:12.885Z,1022.10
2024-03-07T02:05:14.959Z,1022.10
2024-03-07T02:06:14.794Z,1022.06
2024-03-07T02:07:14.774Z,1022.07
2024-03-07T02:08:14.847Z,1022.09
2024-03-07T02:09:14.760Z,1022.04
2024-03-07T02:10:14.737Z,1022.03
2024-03-07T02:11:14.844Z,1022.04
2024-03-07T02:12:14.816Z,1022.05
2024-03-07T02:13:14.709Z,1022.02
2024-03-07T02:14:12.787Z,1022.05
2024-03-07T02:15:13.742Z,1022.04
2024-03-07T02:16:12.748Z,1022.02
2024-03-07T02:17:12.798Z,1022.02
2024-03-07T02:18:14.798Z,1022.01
2024-03-07T02:19:14.634Z,1021.98
2024-03-07T02:20:12.779Z,1022.00
2024-03-07T02:21:14.653Z,1021.98
2024-03-07T02:22:14.621Z,1021.98
2024-03-07T02:23:14.679Z,1021.96
2024-03-07T02:24:14.583Z,1022.03
2024-03-07T02:25:13.597Z,1021.96
2024-03-07T02:26:14.659Z,1021.99
2024-03-07T02:27:12.643Z,1022.01
2024-03-07T02:28:12.657Z,1021.95
2024-03-07T02:29:14.594Z,1021.97
2024-03-07T02:30:14.037Z,1021.94
2024-03-07T02:31:14.011Z,1021.94
2024-03-07T02:32:12.600Z,1021.99
2024-03-07T02:33:12.626Z,1021.98
2024-03-07T02:34:13.993Z,1021.97
2024-03-07T02:35:12.578Z,1021.92
2024-03-07T02:36:13.984Z,1021.92
2024-03-07T02:37:13.984Z,1021.89
2024-03-07T02:38:14.017Z,1021.91
2024-03-07T02:39:14.430Z,1021.88
2024-03-07T02:40:13.433Z,1021.88
2024-03-07T02:41:13.466Z,1021.84
2024-03-07T02:42:14.432Z,1021.84
2024-03-07T02:43:12.444Z,1021.84
2024-03-07T02:44:12.464Z,1021.80
2024-03-07T02:45:14.381Z,1021.79
2024-03-07T02:46:14.377Z,1021.80
2024-03-07T02:47:15.325Z,1021.81
2024-03-07T02:48:14.379Z,1021.76
2024-03-07T02:49:12.391Z,1021.78
2024-03-07T02:50:13.896Z,1021.76
2024-03-07T02:51:14.322Z,1021.78
2024-03-07T02:52:13.277Z,1021.78
2024-03-07T02:53:12.376Z,1021.78
2024-03-07T02:54:14.316Z,1021.77
2024-03-07T02:55:13.762Z,1021.77
2024-03-07T02:56:12.342Z,1021.80
2024-03-07T02:57:14.244Z,1021.83
2024-03-07T02:58:14.245Z,1021.79
2024-03-07T02:59:14.244Z,1021.85
2024-03-07T03:00:14.237Z,1021.84
2024-03-07T03:01:14.244Z,1021.85
2024-03-07T03:02:14.233Z,1021.84
2024-03-07T03:03:14.177Z,1021.83
2024-03-07T03:04:12.224Z,1021.86
2024-03-07T03:05:14.211Z,1021.80
2024-03-07T03:06:12.211Z,1021.78
2024-03-07T03:07:12.219Z,1021.82
2024-03-07T03:08:13.661Z,1021.83
2024-03-07T03:09:14.141Z,1021.84
2024-03-07T03:10:14.114Z,1021.79
2024-03-07T03:11:14.188Z,1021.82
2024-03-07T03:12:12.283Z,1021.79
2024-03-07T03:13:14.086Z,1021.76
2024-03-07T03:14:14.083Z,1021.78
2024-03-07T03:15:14.052Z,1021.81
2024-03-07T03:16:13.536Z,1021.78
2024-03-07T03:17:14.045Z,1021.80
2024-03-07T03:18:14.210Z,1021.79
2024-03-07T03:19:14.031Z,1021.78
2024-03-07T03:20:14.038Z,1021.79
2024-03-07T03:21:12.035Z,1021.74
2024-03-07T03:22:13.993Z,1021.74
2024-03-07T03:23:20.256Z,1021.75
2024-03-07T03:24:14.973Z,1021.75
2024-03-07T03:25:12.016Z,1021.71
2024-03-07T03:26:13.013Z,1021.75
2024-03-07T03:27:13.935Z,1021.71
2024-03-07T03:28:12.007Z,1021.66
2024-03-07T03:29:12.010Z,1021.70
2024-03-07T03:30:11.961Z,1021.71
2024-03-07T03:31:13.418Z,1021.71
2024-03-07T03:32:13.896Z,1021.71
2024-03-07T03:33:13.536Z,1021.78
2024-03-07T03:34:13.856Z,1021.74
2024-03-07T03:35:13.378Z,1021.73
2024-03-07T03:36:13.835Z,1021.75
2024-03-07T03:37:13.830Z,1021.73
2024-03-07T03:38:13.872Z,1021.74
2024-03-07T03:39:13.791Z,1021.72
2024-03-07T03:40:11.835Z,1021.73
2024-03-07T03:41:13.826Z,1021.70
2024-03-07T03:42:11.849Z,1021.69
2024-03-07T03:43:13.765Z,1021.70
2024-03-07T03:44:13.798Z,1021.70
2024-03-07T03:45:13.733Z,1021.75
2024-03-07T03:46:11.786Z,1021.75
2024-03-07T03:47:13.785Z,1021.72
2024-03-07T03:48:13.847Z,1021.72
2024-03-07T03:49:11.753Z,1021.75
2024-03-07T03:50:13.733Z,1021.71
2024-03-07T03:51:11.732Z,1021.72
2024-03-07T03:52:13.701Z,1021.71
2024-03-07T03:53:13.220Z,1021.71
2024-03-07T03:54:13.154Z,1021.70
2024-03-07T03:55:13.638Z,1021.71
2024-03-07T03:56:11.750Z,1021.69
2024-03-07T03:57:13.612Z,1021.71
2024-03-07T03:58:11.684Z,1021.74
2024-03-07T03:59:13.658Z,1021.69
2024-03-07T04:00:13.082Z,1021.69
2024-03-07T04:01:13.134Z,1021.72
2024-03-07T04:02:13.105Z,1021.72
2024-03-07T04:03:13.550Z,1021.72
2024-03-07T04:04:13.035Z,1021.71
2024-03-07T04:05:13.569Z,1021.67
2024-03-07T04:06:13.536Z,1021.72
2024-03-07T04:07:13.010Z,1021.66
2024-03-07T04:08:13.535Z,1021.63
2024-03-07T04:09:13.475Z,1021.68
2024-03-07T04:10:13.512Z,1021.65
2024-03-07T04:11:13.043Z,1021.68
2024-03-07T04:12:13.481Z,1021.69
2024-03-07T04:13:13.462Z,1021.68
2024-03-07T04:14:13.509Z,1021.68
2024-03-07T04:15:13.440Z,1021.69
2024-03-07T04:16:12.918Z,1021.69
2024-03-07T04:17:13.441Z,1021.68
2024-03-07T04:18:13.576Z,1021.74
2024-03-07T04:19:13.401Z,1021.73
2024-03-07T04:20:13.418Z,1021.70
2024-03-07T04:21:12.851Z,1021.68
2024-03-07T04:22:13.345Z,1021.67
2024-03-07T04:23:13.253Z,1021.72
2024-03-07T04:24:13.340Z,1021.65
2024-03-07T04:25:13.336Z,1021.64
2024-03-07T04:26:13.321Z,1021.64
2024-03-07T04:27:11.338Z,1021.61
2024-03-07T04:28:11.362Z,1021.61
2024-03-07T04:29:13.314Z,1021.63
2024-03-07T04:30:12.758Z,1021.64
2024-03-07T04:31:13.248Z,1021.62
2024-03-07T04:32:13.301Z,1021.64
2024-03-07T04:33:13.423Z,1021.63
2024-03-07T04:34:13.241Z,1021.60
2024-03-07T04:35:15.178Z,1021.66
2024-03-07T04:36:12.723Z,1021.64
2024-03-07T04:37:13.178Z,1021.61
2024-03-07T04:38:11.264Z,1021.59
2024-03-07T04:39:13.181Z,1021.62
2024-03-07T04:40:12.649Z,1021.59
2024-03-07T04:41:13.276Z,1021.56
2024-03-07T04:42:13.151Z,1021.62
2024-03-07T04:43:12.480Z,1021.58
2024-03-07T04:44:12.269Z,1021.55
2024-03-07T04:45:13.094Z,1021.56
2024-03-07T04:46:13.082Z,1021.59
2024-03-07T04:47:12.605Z,1021.57
2024-03-07T04:48:13.181Z,1021.54
2024-03-07T04:49:13.058Z,1021.47
2024-03-07T04:50:12.629Z,1021.49
2024-03-07T04:51:13.046Z,1021.53
2024-03-07T04:52:13.048Z,1021.52
2024-03-07T04:53:13.078Z,1021.54
2024-03-07T04:54:12.515Z,1021.54
2024-03-07T04:55:12.504Z,1021.57
2024-03-07T04:56:12.525Z,1021.52
2024-03-07T04:57:12.494Z,1021.51
2024-03-07T04:58:12.973Z,1021.51
2024-03-07T04:59:12.486Z,1021.54
2024-03-07T05:00:12.945Z,1021.51
2024-03-07T05:01:12.944Z,1021.51
2024-03-07T05:02:12.957Z,1021.48
2024-03-07T05:03:12.904Z,1021.51
2024-03-07T05:04:10.943Z,1021.50
2024-03-07T05:05:12.944Z,1021.54
2024-03-07T05:06:12.896Z,1021.56
2024-03-07T05:07:12.870Z,1021.54
2024-03-07T05:08:10.905Z,1021.54
2024-03-07T05:09:12.397Z,1021.53
2024-03-07T05:10:10.972Z,1021.53
2024-03-07T05:11:12.448Z,1021.52
2024-03-07T05:12:10.885Z,1021.49
2024-03-07T05:13:10.859Z,1021.52
2024-03-07T05:14:10.850Z,1021.50
2024-03-07T05:15:11.153Z,1021.51
2024-03-07T05:16:12.818Z,1021.51
2024-03-07T05:17:12.812Z,1021.51
2024-03-07T05:18:12.923Z,1021.50
2024-03-07T05:19:10.806Z,1021.50
2024-03-07T05:20:12.820Z,1021.57
2024-03-07T05:21:12.241Z,1021.52
2024-03-07T05:22:12.717Z,1021.51
2024-03-07T05:23:14.390Z,1021.54
2024-03-07T05:24:10.736Z,1021.56
2024-03-07T05:25:10.822Z,1021.52
2024-03-07T05:26:12.708Z,1021.61
2024-03-07T05:27:12.667Z,1021.60
2024-03-07T05:28:12.637Z,1021.60
2024-03-07T05:29:12.663Z,1021.59
2024-03-07T05:30:12.895Z,1021.59
2024-03-07T05:31:10.685Z,1021.61
2024-03-07T05:32:12.701Z,1021.60
2024-03-07T05:33:12.624Z,1021.59
2024-03-07T05:34:12.607Z,1021.60
2024-03-07T05:35:13.067Z,1021.62
2024-03-07T05:36:10.658Z,1021.60
2024-03-07T05:37:10.624Z,1021.58
2024-03-07T05:38:12.124Z,1021.59
2024-03-07T05:39:12.559Z,1021.57
2024-03-07T05:40:12.534Z,1021.62
2024-03-07T05:41:10.583Z,1021.64
2024-03-07T05:42:12.530Z,1021.65
2024-03-07T05:43:10.569Z,1021.65
2024-03-07T05:44:10.565Z,1021.68
2024-03-07T05:45:12.506Z,1021.63
2024-03-07T05:46:12.451Z,1021.66
2024-03-07T05:47:12.560Z,1021.67
2024-03-07T05:48:10.599Z,1021.67
2024-03-07T05:49:10.510Z,1021.67
2024-03-07T05:50:11.969Z,1021.70
2024-03-07T05:51:11.964Z,1021.69
2024-03-07T05:52:12.404Z,1021.67
2024-03-07T05:53:11.903Z,1021.66
2024-03-07T05:54:11.887Z,1021.63
2024-03-07T05:55:11.869Z,1021.69
2024-03-07T05:56:12.418Z,1021.66
2024-03-07T05:57:10.395Z,1021.66
2024-03-07T05:58:11.895Z,1021.67
2024-03-07T05:59:11.836Z,1021.64
2024-03-07T06:00:10.370Z,1021.65
2024-03-07T06:01:10.381Z,1021.60
2024-03-07T06:02:12.309Z,1021.69
2024-03-07T06:03:12.304Z,1021.64
2024-03-07T06:04:12.300Z,1021.63
2024-03-07T06:05:12.272Z,1021.64
2024-03-07T06:06:11.747Z,1021.70
2024-03-07T06:07:10.310Z,1021.68
2024-03-07T06:08:12.261Z,1021.64
2024-03-07T06:09:12.220Z,1021.66
2024-03-07T06:10:12.371Z,1021.68
2024-03-07T06:11:10.349Z,1021.67
2024-03-07T06:12:19.727Z,1021.71
2024-03-07T06:13:12.732Z,1021.68
2024-03-07T06:14:11.666Z,1021.69
2024-03-07T06:15:12.884Z,1021.67
2024-03-07T06:16:10.210Z,1021.64
2024-03-07T06:17:12.165Z,1021.63
2024-03-07T06:18:11.244Z,1021.62
2024-03-07T06:19:11.650Z,1021.60
2024-03-07T06:20:11.634Z,1021.63
2024-03-07T06:21:12.137Z,1021.68
2024-03-07T06:22:11.089Z,1021.65
2024-03-07T06:23:11.585Z,1021.59
2024-03-07T06:24:11.867Z,1021.62
2024-03-07T06:25:11.060Z,1021.64
2024-03-07T06:26:11.050Z,1021.60
2024-03-07T06:27:11.069Z,1021.66
2024-03-07T06:28:11.077Z,1021.61
2024-03-07T06:29:10.076Z,1021.63
2024-03-07T06:30:12.040Z,1021.64
2024-03-07T06:31:10.991Z,1021.62
2024-03-07T06:32:10.979Z,1021.65
2024-03-07T06:33:11.076Z,1021.60
2024-03-07T06:34:10.959Z,1021.65
2024-03-07T06:35:10.975Z,1021.66
2024-03-07T06:36:10.921Z,1021.66
2024-03-07T06:37:10.927Z,1021.68
2024-03-07T06:38:10.899Z,1021.75
2024-03-07T06:39:12.242Z,1021.75
2024-03-07T06:40:10.897Z,1021.73
2024-03-07T06:41:11.422Z,1021.75
2024-03-07T06:42:11.989Z,1021.79
2024-03-07T06:43:09.922Z,1021.79
2024-03-07T06:44:11.490Z,1021.80
2024-03-07T06:45:10.847Z,1021.85
2024-03-07T06:46:10.845Z,1021.85
2024-03-07T06:47:09.905Z,1021.82
2024-03-07T06:48:10.961Z,1021.86
2024-03-07T06:49:09.902Z,1021.84
2024-03-07T06:50:11.983Z,1021.79
2024-03-07T06:51:10.883Z,1021.83
2024-03-07T06:52:09.855Z,1021.88
2024-03-07T06:53:10.052Z,1021.86
2024-03-07T06:54:10.791Z,1021.84
2024-03-07T06:55:11.752Z,1021.79
2024-03-07T06:56:09.785Z,1021.86
2024-03-07T06:57:09.846Z,1021.79
2024-03-07T06:58:12.229Z,1021.84
2024-03-07T06:59:09.764Z,1021.80
2024-03-07T07:00:11.703Z,1021.82
2024-03-07T07:01:10.672Z,1021.79
2024-03-07T07:02:10.655Z,1021.79
2024-03-07T07:03:10.658Z,1021.81
2024-03-07T07:04:09.712Z,1021.79
2024-03-07T07:05:10.627Z,1021.84
2024-03-07T07:06:09.697Z,1021.80
2024-03-07T07:07:10.597Z,1021.82
2024-03-07T07:08:09.733Z,1021.81
2024-03-07T07:09:10.667Z,1021.87
2024-03-07T07:10:10.591Z,1021.85
2024-03-07T07:11:09.734Z,1021.83
2024-03-07T07:12:10.612Z,1021.79
2024-03-07T07:13:09.671Z,1021.82
2024-03-07T07:14:09.598Z,1021.80
2024-03-07T07:15:09.625Z,1021.84
2024-03-07T07:16:10.528Z,1021.84
2024-03-07T07:17:11.257Z,1021.85
2024-03-07T07:18:10.624Z,1021.86
2024-03-07T07:19:10.486Z,1021.91
2024-03-07T07:20:11.490Z,1021.86
2024-03-07T07:21:09.564Z,1021.87
2024-03-07T07:22:09.544Z,1021.88
2024-03-07T07:23:10.441Z,1021.82
2024-03-07T07:24:10.422Z,1021.89
2024-03-07T07:25:11.435Z,1021.90
2024-03-07T07:26:10.412Z,1021.85
2024-03-07T07:27:10.411Z,1021.86
2024-03-07T07:28:10.378Z,1021.87
2024-03-07T07:29:10.375Z,1021.90
2024-03-07T07:30:11.086Z,1021.88
2024-03-07T07:31:10.371Z,1021.84
2024-03-07T07:32:10.366Z,1021.82
2024-03-07T07:33:10.439Z,1021.80
2024-03-07T07:34:10.348Z,1021.84
2024-03-07T07:35:10.304Z,1021.94
2024-03-07T07:36:10.352Z,1021.91
2024-03-07T07:37:10.291Z,1021.91
2024-03-07T07:38:10.275Z,1021.87
2024-03-07T07:39:09.409Z,1021.86
2024-03-07T07:40:10.302Z,1021.89
2024-03-07T07:41:11.755Z,1021.88
2024-03-07T07:42:11.396Z,1021.88
2024-03-07T07:43:12.992Z,1021.89
2024-03-07T07:44:09.272Z,1021.92
2024-03-07T07:45:10.244Z,1021.88
2024-03-07T07:46:09.291Z,1021.95
2024-03-07T07:47:10.191Z,1021.88
2024-03-07T07:48:10.203Z,1021.87
2024-03-07T07:49:10.160Z,1021.85
2024-03-07T07:50:11.194Z,1021.86
2024-03-07T07:51:11.175Z,1021.90
2024-03-07T07:52:10.626Z,1021.90
2024-03-07T07:53:10.114Z,1021.99
2024-03-07T07:54:10.122Z,1022.00
2024-03-07T07:55:11.629Z,1022.01
2024-03-07T07:56:09.162Z,1022.00
2024-03-07T07:57:09.190Z,1021.93
2024-03-07T07:58:11.101Z,1021.95
2024-03-07T07:59:10.064Z,1021.99
2024-03-07T08:00:11.070Z,1022.01
2024-03-07T08:01:10.054Z,1022.03
2024-03-07T08:02:10.047Z,1021.99
2024-03-07T08:03:11.026Z,1021.96
2024-03-07T08:04:10.527Z,1022.01
2024-03-07T08:05:11.500Z,1022.06
2024-03-07T08:06:10.019Z,1021.94
2024-03-07T08:07:10.509Z,1022.02
2024-03-07T08:08:10.488Z,1021.93
2024-03-07T08:09:10.465Z,1021.92
2024-03-07T08:10:11.449Z,1021.94
2024-03-07T08:11:09.946Z,1021.90
2024-03-07T08:12:11.016Z,1021.89
2024-03-07T08:13:10.926Z,1021.90
2024-03-07T08:14:10.898Z,1022.00
2024-03-07T08:15:11.406Z,1021.94
2024-03-07T08:16:09.887Z,1021.93
2024-03-07T08:17:09.864Z,1021.93
2024-03-07T08:18:12.130Z,1021.95
2024-03-07T08:19:09.837Z,1021.92
2024-03-07T08:20:10.859Z,1021.88
2024-03-07T08:21:11.476Z,1021.85
2024-03-07T08:22:09.829Z,1021.86
2024-03-07T08:23:11.498Z,1021.87
2024-03-07T08:24:08.915Z,1021.85
2024-03-07T08:25:09.808Z,1021.90
2024-03-07T08:26:09.792Z,1021.87
2024-03-07T08:27:09.764Z,1021.86
2024-03-07T08:28:09.767Z,1021.87
2024-03-07T08:29:09.756Z,1021.80
2024-03-07T08:30:11.224Z,1021.82
2024-03-07T08:31:09.717Z,1021.82
2024-03-07T08:32:09.742Z,1021.76
2024-03-07T08:33:09.752Z,1021.77
2024-03-07T08:34:09.700Z,1021.80
2024-03-07T08:35:11.205Z,1021.71
2024-03-07T08:36:09.760Z,1021.72
2024-03-07T08:37:09.684Z,1021.72
2024-03-07T08:38:09.651Z,1021.76
2024-03-07T08:39:09.626Z,1021.76
2024-03-07T08:40:11.205Z,1021.70
2024-03-07T08:41:11.126Z,1021.70
2024-03-07T08:42:09.601Z,1021.70
2024-03-07T08:43:09.602Z,1021.71
2024-03-07T08:44:09.588Z,1021.78
2024-03-07T08:45:12.046Z,1021.69
2024-03-07T08:46:09.576Z,1021.68
2024-03-07T08:47:09.558Z,1021.61
2024-03-07T08:48:09.625Z,1021.63
2024-03-07T08:49:09.541Z,1021.59
2024-03-07T08:50:11.042Z,1021.65
2024-03-07T08:51:09.579Z,1021.64
2024-03-07T08:52:09.515Z,1021.65
2024-03-07T08:53:09.513Z,1021.68
2024-03-07T08:54:09.481Z,1021.65
2024-03-07T08:55:10.999Z,1021.67
2024-03-07T08:56:09.453Z,1021.68
2024-03-07T08:57:09.464Z,1021.67
2024-03-07T08:58:11.404Z,1021.71
2024-03-07T08:59:09.410Z,1021.80
2024-03-07T09:00:10.944Z,1021.80
2024-03-07T09:01:09.393Z,1021.80
2024-03-07T09:02:09.401Z,1021.81
2024-03-07T09:03:09.404Z,1021.83
2024-03-07T09:04:10.879Z,1021.91
2024-03-07T09:05:10.860Z,1021.84
2024-03-07T09:06:08.457Z,1021.82
2024-03-07T09:07:09.330Z,1021.83
2024-03-07T09:08:09.406Z,1021.80
2024-03-07T09:09:08.421Z,1021.85
2024-03-07T09:10:09.339Z,1021.75
2024-03-07T09:11:08.361Z,1021.82
2024-03-07T09:12:08.460Z,1021.76
2024-03-07T09:13:08.400Z,1021.81
2024-03-07T09:14:09.288Z,1021.81
2024-03-07T09:15:10.877Z,1021.89
2024-03-07T09:16:09.242Z,1021.86
2024-03-07T09:17:09.246Z,1021.86
2024-03-07T09:18:09.469Z,1021.89
2024-03-07T09:19:09.243Z,1021.85
2024-03-07T09:20:11.940Z,1021.84
2024-03-07T09:21:09.270Z,1021.87
2024-03-07T09:22:09.206Z,1021.92
2024-03-07T09:23:09.211Z,1021.88
2024-03-07T09:24:09.295Z,1021.91
2024-03-07T09:25:09.143Z,1021.89
2024-03-07T09:26:09.151Z,1021.85
2024-03-07T09:27:09.135Z,1021.82
2024-03-07T09:28:09.146Z,1021.79
2024-03-07T09:29:09.126Z,1021.77
2024-03-07T09:30:09.101Z,1021.75
2024-03-07T09:31:09.103Z,1021.75
2024-03-07T09:32:09.087Z,1021.73
2024-03-07T09:33:09.138Z,1021.78
2024-03-07T09:34:09.076Z,1021.80
2024-03-07T09:35:09.058Z,1021.72
2024-03-07T09:36:09.179Z,1021.77
2024-03-07T09:37:09.045Z,1021.80
2024-03-07T09:38:09.025Z,1021.81
2024-03-07T09:39:09.049Z,1021.66
2024-03-07T09:40:09.000Z,1021.67
2024-03-07T09:41:08.990Z,1021.62
2024-03-07T09:42:08.995Z,1021.68
2024-03-07T09:43:08.951Z,1021.61
2024-03-07T09:44:08.952Z,1021.60
2024-03-07T09:45:09.314Z,1021.52
2024-03-07T09:46:08.946Z,1021.49
2024-03-07T09:47:08.937Z,1021.55
2024-03-07T09:48:08.967Z,1021.48
2024-03-07T09:49:08.910Z,1021.52
2024-03-07T09:50:08.907Z,1021.51
2024-03-07T09:51:08.957Z,1021.50
2024-03-07T09:52:08.907Z,1021.56
2024-03-07T09:53:09.912Z,1021.56
2024-03-07T09:54:09.920Z,1021.58
2024-03-07T09:55:08.831Z,1021.55
2024-03-07T09:56:09.865Z,1021.61
2024-03-07T09:57:09.841Z,1021.52
2024-03-07T09:58:09.801Z,1021.51
2024-03-07T09:59:09.281Z,1021.57
2024-03-07T10:00:09.780Z,1021.50
2024-03-07T10:01:09.810Z,1021.58
2024-03-07T10:02:09.262Z,1021.60
2024-03-07T10:03:09.880Z,1021.54
2024-03-07T10:04:09.252Z,1021.54
2024-03-07T10:05:10.098Z,1021.62
2024-03-07T10:06:09.802Z,1021.60
2024-03-07T10:07:09.694Z,1021.60
2024-03-07T10:08:09.483Z,1021.64
2024-03-07T10:09:09.264Z,1021.52
2024-03-07T10:10:09.696Z,1021.60
2024-03-07T10:11:07.761Z,1021.65
2024-03-07T10:12:08.822Z,1021.64
2024-03-07T10:13:09.627Z,1021.66
2024-03-07T10:14:07.718Z,1021.67
2024-03-07T10:15:09.161Z,1021.63
2024-03-07T10:16:08.215Z,1021.57
2024-03-07T10:17:09.616Z,1021.60
2024-03-07T10:18:08.310Z,1021.60
2024-03-07T10:19:07.720Z,1021.65
2024-03-07T10:20:07.652Z,1021.62
2024-03-07T10:21:07.731Z,1021.52
2024-03-07T10:22:09.571Z,1021.50
2024-03-07T10:23:09.548Z,1021.64
2024-03-07T10:24:09.538Z,1021.58
2024-03-07T10:25:07.567Z,1021.59
2024-03-07T10:26:09.529Z,1021.55
2024-03-07T10:27:07.577Z,1021.50
2024-03-07T10:28:07.575Z,1021.54
2024-03-07T10:29:09.492Z,1021.51
2024-03-07T10:30:09.507Z,1021.46
2024-03-07T10:31:09.468Z,1021.53
2024-03-07T10:32:07.499Z,1021.50
2024-03-07T10:33:09.551Z,1021.44
2024-03-07T10:34:09.424Z,1021.51
2024-03-07T10:35:09.406Z,1021.51
2024-03-07T10:36:09.464Z,1021.50
2024-03-07T10:37:07.471Z,1021.52
2024-03-07T10:38:07.830Z,1021.57
2024-03-07T10:39:07.513Z,1021.52
2024-03-07T10:40:07.454Z,1021.48
2024-03-07T10:41:09.367Z,1021.55
2024-03-07T10:42:09.413Z,1021.54
2024-03-07T10:43:07.402Z,1021.47
2024-03-07T10:44:09.377Z,1021.53
2024-03-07T10:45:09.401Z,1021.46
2024-03-07T10:46:09.296Z,1021.49
2024-03-07T10:47:09.313Z,1021.45
2024-03-07T10:48:07.331Z,1021.52
2024-03-07T10:49:09.807Z,1021.49
2024-03-07T10:50:09.219Z,1021.40
2024-03-07T10:51:07.874Z,1021.50
2024-03-07T10:52:09.252Z,1021.43
2024-03-07T10:53:09.218Z,1021.50
2024-03-07T10:54:09.253Z,1021.46
2024-03-07T10:55:13.566Z,1021.37
2024-03-07T10:56:09.198Z,1021.36
2024-03-07T10:57:07.399Z,1021.39
2024-03-07T10:58:09.154Z,1021.41
2024-03-07T10:59:09.151Z,1021.45
2024-03-07T11:00:09.156Z,1021.43
2024-03-07T11:01:09.254Z,1021.37
2024-03-07T11:02:07.194Z,1021.34
2024-03-07T11:03:09.129Z,1021.42
2024-03-07T11:04:07.355Z,1021.40
2024-03-07T11:05:07.184Z,1021.33
2024-03-07T11:06:09.117Z,1021.34
2024-03-07T11:07:07.147Z,1021.33
2024-03-07T11:08:08.133Z,1021.30
2024-03-07T11:09:09.093Z,1021.35
2024-03-07T11:10:09.041Z,1021.28
2024-03-07T11:11:07.113Z,1021.33
2024-03-07T11:12:07.107Z,1021.34
2024-03-07T11:13:09.982Z,1021.29
2024-03-07T11:14:09.501Z,1021.41
2024-03-07T11:15:07.059Z,1021.33
2024-03-07T11:16:07.086Z,1021.29
2024-03-07T11:17:07.957Z,1021.35
2024-03-07T11:18:09.004Z,1021.34
2024-03-07T11:19:07.023Z,1021.37
2024-03-07T11:20:08.939Z,1021.40
2024-03-07T11:21:09.714Z,1021.34
2024-03-07T11:22:06.982Z,1021.32
2024-03-07T11:23:06.957Z,1021.36
2024-03-07T11:24:07.005Z,1021.35
2024-03-07T11:25:09.062Z,1021.30
2024-03-07T11:26:09.966Z,1021.38
2024-03-07T11:27:06.919Z,1021.34
2024-03-07T11:28:08.854Z,1021.35
2024-03-07T11:29:08.852Z,1021.34
2024-03-07T11:30:08.864Z,1021.21
2024-03-07T11:31:08.810Z,1021.31
2024-03-07T11:32:06.868Z,1021.27
2024-03-07T11:33:08.859Z,1021.24
2024-03-07T11:34:08.798Z,1021.28
2024-03-07T11:35:06.827Z,1021.24
2024-03-07T11:36:06.855Z,1021.21
2024-03-07T11:37:06.863Z,1021.28
2024-03-07T11:38:08.757Z,1021.15
2024-03-07T11:39:08.769Z,1021.17
2024-03-07T11:40:08.697Z,1021.20
2024-03-07T11:41:06.766Z,1021.15
2024-03-07T11:42:06.784Z,1021.15
2024-03-07T11:43:08.718Z,1021.21
2024-03-07T11:44:08.695Z,1021.21
2024-03-07T11:45:08.647Z,1021.13
2024-03-07T11:46:06.734Z,1021.18
2024-03-07T11:47:08.710Z,1021.09
2024-03-07T11:48:06.954Z,1021.17
2024-03-07T11:49:08.643Z,1021.11
2024-03-07T11:50:08.610Z,1021.08
2024-03-07T11:51:08.636Z,1021.02
2024-03-07T11:52:08.612Z,1021.05
2024-03-07T11:53:06.638Z,1021.03
2024-03-07T11:54:06.704Z,1021.01
2024-03-07T11:55:08.563Z,1021.04
2024-03-07T11:56:06.603Z,1021.00
2024-03-07T11:57:06.638Z,1020.92
2024-03-07T11:58:06.596Z,1020.94
2024-03-07T11:59:09.256Z,1020.92
2024-03-07T12:00:08.549Z,1020.93
2024-03-07T12:01:08.511Z,1020.92
2024-03-07T12:02:08.551Z,1020.93
2024-03-07T12:03:06.599Z,1020.86
2024-03-07T12:04:06.531Z,1020.90
2024-03-07T12:05:07.455Z,1020.85